Time;durP1;ratioP1;P1;durP2;ratioP2;P2;SDS_P1;SDS_P2;PMS_P1;PMS_P2;Temp;Humidity;BMP_temperature;BMP_pressure;BME280_temperature;BME280_humidity;BME280_pressure;Samples;Min_cycle;Max_cycle;Signal;HPM_P1;HPM_P2
2022/09/16 00:02:33;;;;;;;9.07;5.90;;;;;;;16.23;68.30;98558.16;5161851;28;20061;-72
2022/09/16 00:05:29;;;;;;;10.80;5.13;;;;;;;16.34;68.22;98565.69;5161831;28;20105;-72
2022/09/16 00:08:20;;;;;;;10.05;5.38;;;;;;;16.34;68.02;98565.69;5161841;28;20069;-72
2022/09/16 00:11:11;;;;;;;7.55;5.78;;;;;;;16.31;67.69;98556.19;5161138;28;20096;-72
2022/09/16 00:14:01;;;;;;;8.70;5.50;;;;;;;16.28;67.94;98535.16;5161757;28;20081;-72
2022/09/16 00:16:51;;;;;;;13.32;6.03;;;;;;;16.32;68.20;98552.47;5162059;28;20073;-72
2022/09/16 00:19:41;;;;;;;8.02;5.57;;;;;;;16.41;67.56;98555.84;5161320;28;20157;-72
2022/09/16 00:22:32;;;;;;;9.43;5.63;;;;;;;16.39;67.58;98550.72;5161337;28;20247;-72
2022/09/16 00:25:22;;;;;;;11.80;5.50;;;;;;;16.37;67.62;98555.41;5164740;28;20050;-72
2022/09/16 00:28:12;;;;;;;8.70;5.93;;;;;;;16.39;67.54;98560.56;5166180;28;20072;-72
2022/09/16 00:31:02;;;;;;;7.97;5.93;;;;;;;16.42;67.54;98549.47;5164755;28;20204;-73
2022/09/16 00:33:53;;;;;;;8.77;5.60;;;;;;;16.48;67.25;98550.56;5165388;28;20170;-72
2022/09/16 00:36:43;;;;;;;11.68;6.30;;;;;;;16.45;67.47;98555.28;5165598;28;20145;-72
2022/09/16 00:39:34;;;;;;;8.68;6.22;;;;;;;16.18;68.41;98540.81;5165674;28;20053;-72
2022/09/16 00:42:24;;;;;;;12.93;6.30;;;;;;;16.24;68.26;98539.25;5164779;28;20424;-72
2022/09/16 00:45:22;;;;;;;12.70;5.93;;;;;;;16.25;68.02;98538.22;5165159;28;20137;-72
2022/09/16 00:48:17;;;;;;;8.93;6.15;;;;;;;16.00;69.00;98540.44;5164346;28;20149;-72
2022/09/16 00:51:10;;;;;;;8.23;5.90;;;;;;;16.23;68.20;98555.50;5164326;28;20108;-72
2022/09/16 00:54:03;;;;;;;13.90;6.50;;;;;;;16.20;69.02;98551.34;5165184;28;20433;-72
2022/09/16 00:56:55;;;;;;;10.75;6.35;;;;;;;16.32;68.80;98563.19;5165159;28;20054;-72
2022/09/16 00:59:51;;;;;;;9.15;6.63;;;;;;;16.22;68.62;98551.97;5164380;28;20656;-72
2022/09/16 01:02:44;;;;;;;13.48;6.72;;;;;;;16.31;68.74;98563.38;5164711;28;20501;-72
2022/09/16 01:05:35;;;;;;;11.48;6.43;;;;;;;16.35;69.14;98560.13;5165106;28;20555;-72
2022/09/16 01:08:25;;;;;;;13.15;6.20;;;;;;;16.59;67.82;98566.13;5164946;28;20047;-72
2022/09/16 01:11:16;;;;;;;11.77;6.55;;;;;;;16.48;68.70;98566.63;5164734;28;20054;-72
2022/09/16 01:17:31;;;;;;;10.38;6.90;;;;;;;16.24;69.24;98571.34;5164911;28;20061;-72
2022/09/16 01:20:36;;;;;;;9.88;6.47;;;;;;;16.28;68.84;98551.22;5164601;28;20077;-72
2022/09/16 01:23:45;;;;;;;11.15;6.65;;;;;;;16.34;68.78;98565.69;5144328;28;20050;-72
2022/09/16 01:26:42;;;;;;;10.13;6.80;;;;;;;16.30;69.00;98570.59;5143598;28;20043;-73
2022/09/16 01:29:56;;;;;;;10.77;6.65;;;;;;;16.37;68.12;98559.94;5157020;28;20177;-74
2022/09/16 01:33:00;;;;;;;14.35;6.55;;;;;;;16.16;68.57;98566.94;5160986;28;20117;-72
2022/09/16 01:36:14;;;;;;;9.55;6.75;;;;;;;16.14;68.84;98560.94;5162803;28;20061;-72
2022/09/16 01:39:29;;;;;;;12.10;6.38;;;;;;;16.20;69.19;98567.41;5164579;28;20493;-73
2022/09/16 01:42:37;;;;;;;9.88;5.88;;;;;;;16.19;68.58;98569.25;5163299;28;20073;-72
2022/09/16 01:46:00;;;;;;;9.20;5.75;;;;;;;16.06;68.97;98552.22;5163895;28;20065;-72
2022/09/16 01:48:54;;;;;;;9.05;5.95;;;;;;;15.95;68.79;98557.03;5163950;28;20098;-72
2022/09/16 01:52:12;;;;;;;11.95;6.50;;;;;;;16.01;69.05;98565.34;5163019;28;20072;-72
2022/09/16 01:55:06;;;;;;;10.93;6.20;;;;;;;15.98;68.15;98556.66;5164822;28;20136;-75
2022/09/16 01:58:02;;;;;;;;;;;;;;;15.90;68.91;98569.34;5164520;28;20062;-73
2022/09/16 02:01:00;;;;;;;17.85;6.72;;;;;;;15.77;69.67;98570.00;5162955;28;19929;-72
2022/09/16 02:03:56;;;;;;;10.25;6.68;;;;;;;15.77;69.88;98548.63;5164143;28;20058;-73
2022/09/16 02:06:50;;;;;;;12.27;7.03;;;;;;;16.01;68.67;98552.78;5163991;28;20077;-74
2022/09/16 02:09:47;;;;;;;8.95;6.72;;;;;;;16.01;69.78;98560.00;5163974;28;20108;-72
2022/09/16 02:12:41;;;;;;;12.90;6.75;;;;;;;16.03;69.56;98560.63;5163413;28;20161;-73
2022/09/16 02:15:33;;;;;;;13.63;6.43;;;;;;;15.88;69.29;98555.31;5163111;28;20050;-73
2022/09/16 02:18:28;;;;;;;17.35;6.63;;;;;;;15.92;69.01;98546.72;5164095;28;20448;-74
2022/09/16 02:21:21;;;;;;;10.45;6.20;;;;;;;15.73;69.24;98548.16;5162465;28;20124;-72
2022/09/16 02:24:15;;;;;;;11.90;7.22;;;;;;;15.75;69.01;98531.94;5164188;28;20149;-75
2022/09/16 02:27:11;;;;;;;9.85;6.28;;;;;;;15.85;68.72;98534.31;5162727;28;20058;-73
2022/09/16 02:30:08;;;;;;;8.13;5.90;;;;;;;15.71;69.26;98546.69;5163577;28;20113;-74
2022/09/16 02:33:06;;;;;;;11.57;6.70;;;;;;;15.76;68.61;98552.31;5163583;28;20058;-72
2022/09/16 02:35:57;;;;;;;8.70;5.93;;;;;;;15.63;68.95;98536.06;5163361;28;20073;-73
2022/09/16 02:38:53;;;;;;;11.52;6.53;;;;;;;15.63;68.67;98546.75;5163416;28;20236;-73
2022/09/16 02:41:43;;;;;;;12.18;6.28;;;;;;;15.57;68.72;98543.00;5142985;28;20102;-73
2022/09/16 02:44:33;;;;;;;10.30;5.90;;;;;;;15.52;68.76;98545.41;5143756;28;20136;-72
2022/09/16 02:47:39;;;;;;;10.15;5.72;;;;;;;15.45;69.57;98537.28;5142047;28;20059;-74
2022/09/16 02:50:49;;;;;;;8.85;5.57;;;;;;;15.38;70.53;98541.72;5153966;28;20057;-74
2022/09/16 02:53:45;;;;;;;8.25;5.03;;;;;;;15.32;69.10;98533.63;5161957;28;20196;-72
2022/09/16 02:56:38;;;;;;;6.32;5.00;;;;;;;15.30;69.56;98536.50;5162101;28;20069;-73
2022/09/16 02:59:28;;;;;;;9.38;4.88;;;;;;;15.38;68.25;98539.06;5162534;28;20053;-75
2022/09/16 03:02:18;;;;;;;8.63;4.78;;;;;;;15.16;68.90;98518.63;5162750;28;20192;-76
2022/09/16 03:05:11;;;;;;;10.48;4.82;;;;;;;15.19;69.68;98536.94;5162896;28;20221;-76
2022/09/16 03:08:02;;;;;;;12.25;5.47;;;;;;;15.18;69.52;98536.13;5162827;28;20199;-73
2022/09/16 03:10:54;;;;;;;12.80;5.70;;;;;;;15.30;68.71;98543.66;5162371;28;20065;-76
2022/09/16 03:14:18;;;;;;;10.48;4.60;;;;;;;15.36;68.48;98546.41;5162814;28;20677;-75
2022/09/16 03:17:23;;;;;;;8.05;4.50;;;;;;;15.40;68.01;98553.06;5162955;28;20520;-75
2022/09/16 03:20:37;;;;;;;8.23;4.20;;;;;;;15.35;68.01;98547.44;5161919;28;20089;-75
2022/09/16 03:23:48;;;;;;;11.52;4.90;;;;;;;15.36;67.12;98549.09;5162507;28;20054;-75
2022/09/16 03:26:46;;;;;;;11.07;4.55;;;;;;;15.60;66.74;98539.97;5161205;28;20057;-75
2022/09/16 03:29:41;;;;;;;8.52;4.50;;;;;;;15.47;67.35;98532.59;5162155;28;20132;-75
2022/09/16 03:32:47;;;;;;;9.75;4.82;;;;;;;15.32;67.67;98523.78;5160616;28;20050;-75
2022/09/16 03:35:47;;;;;;;7.72;4.97;;;;;;;15.51;67.64;98523.19;5162474;28;20081;-74
2022/09/16 03:38:39;;;;;;;9.55;5.03;;;;;;;15.57;67.84;98529.66;5162667;28;20058;-74
2022/09/16 03:41:32;;;;;;;7.90;4.68;;;;;;;15.39;67.73;98503.31;5161832;28;20046;-74
2022/09/16 03:44:30;;;;;;;10.80;5.00;;;;;;;15.58;67.86;98538.47;5162389;28;20106;-75
2022/09/16 03:47:21;;;;;;;7.22;4.93;;;;;;;15.47;67.95;98535.28;5161996;28;20192;-74
2022/09/16 03:50:11;;;;;;;9.07;4.80;;;;;;;15.40;68.10;98521.00;5161743;28;20068;-74
2022/09/16 03:53:02;;;;;;;9.35;4.78;;;;;;;15.55;67.38;98539.69;5161991;28;20085;-74
2022/09/16 03:55:51;;;;;;;10.45;5.25;;;;;;;15.62;67.73;98535.25;5162199;28;20069;-75
2022/09/16 03:58:41;;;;;;;13.02;5.78;;;;;;;15.48;67.91;98538.78;5161177;28;20105;-74
2022/09/16 04:01:31;;;;;;;7.88;5.15;;;;;;;15.46;67.68;98540.78;5160943;28;20065;-75
2022/09/16 04:04:22;;;;;;;8.25;5.00;;;;;;;15.30;67.91;98539.16;5162378;28;20537;-75
2022/09/16 04:07:12;;;;;;;9.02;4.70;;;;;;;15.50;67.70;98537.59;5162019;28;20054;-75
2022/09/16 04:10:05;;;;;;;7.72;5.07;;;;;;;15.47;67.68;98516.56;5161596;28;20128;-75
2022/09/16 04:12:56;;;;;;;8.95;5.10;;;;;;;15.63;66.88;98528.91;5161843;28;20053;-75
2022/09/16 04:15:46;;;;;;;9.05;5.30;;;;;;;15.71;67.48;98527.97;5160915;28;20148;-75
2022/09/16 04:18:37;;;;;;;9.27;4.40;;;;;;;15.61;66.91;98519.41;5162196;28;20070;-75
2022/09/16 04:21:28;;;;;;;10.70;5.05;;;;;;;15.53;67.54;98523.03;5161265;28;20140;-75
2022/09/16 04:24:18;;;;;;;10.82;5.30;;;;;;;15.58;68.20;98523.28;5161600;28;20101;-75
2022/09/16 04:27:09;;;;;;;9.70;5.80;;;;;;;15.51;67.16;98515.19;5161613;28;20429;-75
2022/09/16 04:29:59;;;;;;;12.70;6.32;;;;;;;15.57;67.20;98534.16;5161322;28;20038;-75
2022/09/16 04:32:55;;;;;;;6.85;5.28;;;;;;;15.62;67.38;98505.03;5146550;28;20061;-75
2022/09/16 04:35:46;;;;;;;11.77;5.18;;;;;;;15.63;67.40;98502.19;5161765;28;20129;-75
2022/09/16 04:38:37;;;;;;;9.32;5.75;;;;;;;15.51;68.44;98525.88;5161842;28;20069;-75
2022/09/16 04:41:27;;;;;;;8.63;5.00;;;;;;;15.49;68.03;98511.84;5160464;28;20151;-75
2022/09/16 04:44:18;;;;;;;11.05;5.63;;;;;;;15.66;68.14;98515.19;5160229;28;20524;-75
2022/09/16 04:47:08;;;;;;;10.35;5.13;;;;;;;15.60;67.96;98509.75;5141444;28;20588;-75
2022/09/16 04:49:58;;;;;;;13.52;5.18;;;;;;;15.73;67.40;98521.44;5145738;28;20078;-75
2022/09/16 04:52:48;;;;;;;13.57;5.60;;;;;;;15.68;68.33;98529.19;5161856;28;20058;-75
2022/09/16 04:55:38;;;;;;;9.63;4.93;;;;;;;15.69;67.88;98530.00;5161852;28;20062;-75
2022/09/16 04:58:28;;;;;;;8.43;5.18;;;;;;;15.77;68.52;98532.59;5161205;28;20105;-75
2022/09/16 05:01:24;;;;;;;10.73;5.53;;;;;;;15.81;68.47;98533.84;5161210;28;20057;-75
2022/09/16 05:04:14;;;;;;;7.07;5.32;;;;;;;15.77;68.31;98534.44;5161568;28;20054;-72
2022/09/16 05:07:05;;;;;;;9.23;5.50;;;;;;;15.65;68.37;98528.69;5160151;28;20140;-72
2022/09/16 05:09:55;;;;;;;9.90;5.38;;;;;;;15.82;67.98;98530.16;5160451;28;20108;-75
2022/09/16 05:12:50;;;;;;;10.10;5.80;;;;;;;15.61;68.07;98535.44;5163888;28;20057;-73
2022/09/16 05:15:40;;;;;;;11.02;5.05;;;;;;;15.60;68.17;98539.13;5159761;28;20300;-74
2022/09/16 05:18:31;;;;;;;13.05;5.05;;;;;;;15.69;67.57;98532.69;5164650;28;20057;-73
2022/09/16 05:21:23;;;;;;;10.50;5.18;;;;;;;15.70;67.70;98521.00;5159988;28;20062;-74
2022/09/16 05:24:14;;;;;;;10.48;5.38;;;;;;;15.55;68.87;98517.47;5163085;28;20128;-73
2022/09/16 05:27:04;;;;;;;10.23;5.32;;;;;;;15.64;68.33;98527.06;5162180;28;20543;-72
2022/09/16 05:29:54;;;;;;;10.90;5.10;;;;;;;15.65;67.66;98532.19;5149249;28;20444;-73
2022/09/16 05:32:43;;;;;;;13.13;4.72;;;;;;;15.71;68.36;98534.16;5146845;28;20109;-73
2022/09/16 05:35:33;;;;;;;6.18;4.60;;;;;;;15.76;68.08;98528.25;5161973;28;20046;-75
2022/09/16 05:38:23;;;;;;;12.40;5.22;;;;;;;15.70;68.23;98526.34;5163012;28;20074;-72
2022/09/16 05:41:13;;;;;;;10.57;4.90;;;;;;;15.75;67.90;98523.91;5163966;28;20105;-73
2022/09/16 05:44:07;;;;;;;12.10;4.57;;;;;;;15.70;68.29;98526.34;5163577;28;20057;-75
2022/09/16 05:46:57;;;;;;;8.65;5.18;;;;;;;15.60;69.39;98523.09;5164692;28;20058;-72
2022/09/16 05:49:47;;;;;;;8.02;4.38;;;;;;;15.64;68.88;98522.53;5163814;28;20061;-74
2022/09/16 05:52:37;;;;;;;9.48;4.90;;;;;;;15.69;68.94;98525.50;5159590;28;20062;-73
2022/09/16 05:55:27;;;;;;;12.52;4.45;;;;;;;15.61;68.58;98514.88;5163047;28;20053;-73
2022/09/16 05:58:17;;;;;;;9.65;4.63;;;;;;;15.60;68.87;98521.25;5163857;28;20073;-72
2022/09/16 06:01:17;;;;;;;8.77;4.60;;;;;;;15.64;68.41;98535.06;5162070;28;20444;-74
2022/09/16 06:04:10;;;;;;;8.75;4.32;;;;;;;15.65;68.58;98540.22;5158827;28;20113;-72
2022/09/16 06:07:02;;;;;;;9.63;5.43;;;;;;;15.62;69.10;98542.44;5161625;28;20058;-73
2022/09/16 06:09:52;;;;;;;10.38;4.47;;;;;;;15.79;68.02;98545.75;5160761;28;20121;-74
2022/09/16 06:12:42;;;;;;;7.80;4.70;;;;;;;15.72;68.98;98543.00;5163719;28;20431;-73
2022/09/16 06:15:33;;;;;;;7.72;4.63;;;;;;;15.79;68.69;98545.75;5149281;28;20065;-73
2022/09/16 06:18:25;;;;;;;13.00;4.60;;;;;;;15.57;67.44;98551.03;5162464;28;20077;-72
2022/09/16 06:21:15;;;;;;;10.32;4.80;;;;;;;15.83;68.66;98561.25;5160425;28;20462;-72
2022/09/16 06:24:09;;;;;;;12.23;4.70;;;;;;;15.64;69.01;98554.59;5138264;28;20062;-74
2022/09/16 06:26:59;;;;;;;;;;;;;;;15.80;68.66;98563.47;5164443;28;20084;-74
2022/09/16 06:29:49;;;;;;;8.88;4.38;;;;;;;15.71;68.30;98560.88;5150928;28;19975;-72
2022/09/16 06:32:39;;;;;;;7.65;4.35;;;;;;;15.80;68.67;98553.59;5142299;28;20051;-73
2022/09/16 06:35:30;;;;;;;7.50;4.20;;;;;;;15.69;68.25;98565.59;5153522;28;20128;-72
2022/09/16 06:38:20;;;;;;;11.40;5.20;;;;;;;15.69;69.60;98560.25;5142446;28;20053;-73
2022/09/16 06:41:11;;;;;;;9.90;5.47;;;;;;;15.71;69.51;98560.88;5148052;28;20061;-71
2022/09/16 06:44:02;;;;;;;9.23;4.57;;;;;;;15.67;68.99;98564.13;5147265;28;20050;-71
2022/09/16 06:46:52;;;;;;;10.27;4.47;;;;;;;15.41;69.71;98570.75;5144756;28;20054;-71
2022/09/16 06:49:43;;;;;;;14.55;5.20;;;;;;;15.64;69.46;98557.28;5139512;28;20055;-72
2022/09/16 06:52:34;;;;;;;6.70;4.22;;;;;;;15.64;69.77;98565.28;5132202;28;20705;-71
2022/09/16 06:55:24;;;;;;;15.82;5.05;;;;;;;15.66;70.06;98565.09;5141821;28;20148;-75
2022/09/16 06:58:14;;;;;;;10.07;4.82;;;;;;;15.77;69.19;98562.00;5164676;28;20084;-76
2022/09/16 07:01:05;;;;;;;10.85;4.40;;;;;;;15.58;69.24;98565.22;5151205;28;20724;-74
2022/09/16 07:03:57;;;;;;;7.95;4.07;;;;;;;15.56;69.95;98540.50;5163564;28;20081;-75
2022/09/16 07:06:49;;;;;;;8.75;4.68;;;;;;;15.74;69.72;98557.00;5145614;28;20064;-72
2022/09/16 07:09:58;;;;;;;16.02;6.82;;;;;;;15.47;71.02;98567.34;5157547;28;20136;-72
2022/09/16 07:12:48;;;;;;;14.57;6.05;;;;;;;15.47;69.50;98563.84;5158140;28;20072;-73
2022/09/16 07:15:38;;;;;;;12.30;6.18;;;;;;;15.41;71.33;98565.41;5149108;28;20053;-74
2022/09/16 07:18:53;;;;;;;11.13;4.55;;;;;;;15.35;70.01;98563.47;5156549;28;20060;-70
2022/09/16 07:21:50;;;;;;;13.98;4.32;;;;;;;15.44;70.25;98570.38;5143361;28;20728;-70
2022/09/16 07:24:40;;;;;;;7.93;4.82;;;;;;;15.65;69.88;98566.13;5146617;28;20061;-71
2022/09/16 07:27:30;;;;;;;6.70;4.20;;;;;;;15.74;68.75;98563.19;5153091;28;20131;-71
2022/09/16 07:30:20;;;;;;;69.28;37.25;;;;;;;15.67;68.56;98550.75;5147809;28;20543;-72
2022/09/16 07:33:10;;;;;;;15.45;8.25;;;;;;;15.69;69.16;98562.06;5141078;28;20057;-74
2022/09/16 07:36:01;;;;;;;12.13;4.82;;;;;;;15.70;69.35;98563.75;5151764;28;20758;-72
2022/09/16 07:38:53;;;;;;;8.85;4.30;;;;;;;15.72;69.58;98559.84;5152300;28;20144;-73
2022/09/16 07:41:45;;;;;;;11.93;4.65;;;;;;;15.95;67.70;98573.09;5155774;28;20089;-74
2022/09/16 07:44:35;;;;;;;12.65;4.93;;;;;;;15.72;68.20;98562.53;5150776;28;20073;-71
2022/09/16 07:47:25;;;;;;;10.35;4.57;;;;;;;15.79;68.19;98573.31;5147357;28;20423;-73
2022/09/16 07:50:15;;;;;;;9.43;5.00;;;;;;;15.75;69.32;98574.69;5147031;28;20046;-71
2022/09/16 07:53:05;;;;;;;11.20;5.53;;;;;;;15.91;68.63;98571.81;5144498;28;20192;-71
2022/09/16 07:55:59;;;;;;;13.20;5.30;;;;;;;15.98;68.61;98578.06;5146618;28;20065;-73
2022/09/16 07:58:49;;;;;;;14.90;5.45;;;;;;;16.12;68.82;98578.19;5145368;28;20069;-72
2022/09/16 08:01:39;;;;;;;9.02;5.40;;;;;;;16.09;68.25;98584.78;5142042;28;20098;-71
2022/09/16 08:04:32;;;;;;;13.40;5.85;;;;;;;16.06;68.17;98584.31;5141164;28;20058;-73
2022/09/16 08:07:23;;;;;;;7.35;4.65;;;;;;;15.98;67.74;98582.56;5154085;28;20188;-72
2022/09/16 08:10:14;;;;;;;8.02;5.00;;;;;;;15.94;67.96;98576.78;5147442;28;20165;-71
2022/09/16 08:13:05;;;;;;;11.63;5.20;;;;;;;15.89;70.43;98589.91;5146987;28;20062;-72
2022/09/16 08:16:00;;;;;;;10.20;5.28;;;;;;;15.89;69.08;98589.91;5142103;28;20133;-70
2022/09/16 08:18:54;;;;;;;9.70;5.18;;;;;;;16.26;69.94;98600.56;5141416;28;20090;-72
2022/09/16 08:21:44;;;;;;;10.95;5.68;;;;;;;16.21;67.97;98598.47;5141784;28;20192;-71
2022/09/16 08:24:34;;;;;;;13.95;6.55;;;;;;;16.23;68.66;98596.44;5142313;28;20061;-72
2022/09/16 08:27:25;;;;;;;12.50;5.32;;;;;;;16.42;68.68;98595.81;5140289;28;20065;-75
2022/09/16 08:30:15;;;;;;;16.23;7.30;;;;;;;16.38;68.26;98593.69;5142010;28;20591;-72
2022/09/16 08:33:05;;;;;;;10.30;5.53;;;;;;;16.38;67.77;98594.53;5149331;28;20066;-74
2022/09/16 08:36:09;;;;;;;11.57;5.30;;;;;;;16.47;67.69;98587.22;5150945;28;20100;-72
2022/09/16 08:39:00;;;;;;;12.90;5.70;;;;;;;16.37;68.17;98590.19;5152703;28;20073;-73
2022/09/16 08:42:27;;;;;;;12.00;6.03;;;;;;;16.67;68.63;98600.78;5157995;28;20084;-73
2022/09/16 08:45:54;;;;;;;10.23;5.20;;;;;;;16.51;68.64;98598.34;5149589;28;20193;-71
2022/09/16 08:48:54;;;;;;;10.02;4.90;;;;;;;16.77;67.57;98603.16;5171684;28;20058;-74
2022/09/16 08:51:45;;;;;;;7.00;4.97;;;;;;;16.71;67.18;98580.63;5144550;28;20199;-72
2022/09/16 08:54:41;;;;;;;10.68;5.55;;;;;;;16.84;68.20;98612.88;5163350;28;20103;-74
2022/09/16 08:57:38;;;;;;;9.43;4.95;;;;;;;16.80;67.96;98602.78;5148749;28;20113;-72
2022/09/16 09:00:29;;;;;;;10.52;4.90;;;;;;;16.73;66.60;98602.69;5144553;28;20485;-72
2022/09/16 09:03:41;;;;;;;7.60;4.80;;;;;;;16.93;67.67;98615.44;5146597;28;20066;-72
2022/09/16 09:06:56;;;;;;;11.35;6.00;;;;;;;16.73;67.51;98612.56;5148646;28;20069;-71
2022/09/16 09:09:53;;;;;;;;;;;;;;;16.82;68.47;98611.41;5147353;28;20216;-70
2022/09/16 09:12:53;;;;;;;9.95;5.22;;;;;;;16.96;66.45;98577.56;5150678;28;19969;-73
2022/09/16 09:15:50;;;;;;;8.93;5.07;;;;;;;16.79;67.17;98604.63;5145888;28;20065;-71
2022/09/16 09:18:59;;;;;;;9.80;5.30;;;;;;;16.84;67.20;98604.84;5145197;28;20062;-72
2022/09/16 09:21:56;;;;;;;9.55;4.65;;;;;;;17.01;67.84;98593.88;5142084;28;20062;-72
2022/09/16 09:25:19;;;;;;;12.00;4.50;;;;;;;16.99;66.67;98607.47;5164523;28;20077;-70
2022/09/16 09:28:37;;;;;;;12.57;5.53;;;;;;;17.32;67.07;98602.34;5142034;28;20267;-72
2022/09/16 09:31:52;;;;;;;6.28;4.40;;;;;;;16.85;67.10;98606.53;5154402;28;20455;-72
2022/09/16 09:34:51;;;;;;;11.25;4.57;;;;;;;17.22;66.33;98607.22;5142823;28;20424;-71
2022/09/16 09:38:10;;;;;;;8.00;4.53;;;;;;;16.75;67.75;98605.19;5147271;28;20061;-73
2022/09/16 09:41:10;;;;;;;10.57;4.75;;;;;;;16.70;66.93;98599.56;5159802;28;20065;-73
2022/09/16 09:44:35;;;;;;;7.97;4.65;;;;;;;16.83;66.59;98603.22;5150126;28;20544;-71
2022/09/16 09:47:35;;;;;;;8.32;4.43;;;;;;;17.03;67.32;98599.88;5145992;28;20077;-71
2022/09/16 09:50:35;;;;;;;11.43;4.85;;;;;;;17.24;65.64;98589.06;5147117;28;20054;-72
2022/09/16 09:53:32;;;;;;;14.23;5.60;;;;;;;16.83;66.00;98605.06;5161369;28;20068;-71
2022/09/16 09:56:32;;;;;;;9.68;4.60;;;;;;;16.76;66.19;98605.00;5151805;28;20535;-72
2022/09/16 09:59:35;;;;;;;8.70;4.60;;;;;;;17.15;65.76;98600.97;5161993;28;20061;-74
2022/09/16 10:02:26;;;;;;;9.73;4.78;;;;;;;16.88;64.67;98600.75;5157004;28;20054;-71
2022/09/16 10:05:26;;;;;;;9.70;4.18;;;;;;;16.71;65.79;98610.06;5140597;28;20424;-70
2022/09/16 10:08:21;;;;;;;7.82;4.80;;;;;;;16.46;66.07;98596.25;5149091;28;20076;-70
2022/09/16 10:11:23;;;;;;;6.05;3.35;;;;;;;16.15;66.14;98589.34;5154589;28;20069;-71
2022/09/16 10:14:30;;;;;;;6.03;3.80;;;;;;;16.42;64.61;98590.47;5155923;28;20231;-69
2022/09/16 10:17:20;;;;;;;5.70;3.75;;;;;;;16.30;66.17;98600.00;5148141;28;20112;-69
2022/09/16 10:20:30;;;;;;;6.82;3.70;;;;;;;16.17;66.45;98600.69;5156154;28;20072;-69
2022/09/16 10:23:24;;;;;;;8.30;3.63;;;;;;;16.38;66.23;98601.72;5156519;28;20448;-69
2022/09/16 10:26:22;;;;;;;8.23;4.20;;;;;;;16.48;65.95;98604.09;5151808;28;20077;-69
2022/09/16 10:29:18;;;;;;;6.50;3.83;;;;;;;16.66;65.25;98591.09;5149034;28;20112;-69
2022/09/16 10:32:15;;;;;;;8.25;4.32;;;;;;;16.46;65.54;98601.63;5151177;28;20165;-70
2022/09/16 10:35:07;;;;;;;8.00;4.07;;;;;;;16.29;66.38;98598.38;5155796;28;20525;-69
2022/09/16 10:38:00;;;;;;;6.22;4.53;;;;;;;16.60;66.01;98597.22;5157527;28;20070;-70
2022/09/16 10:41:03;;;;;;;9.65;4.85;;;;;;;16.55;65.63;98595.09;5153913;28;20054;-72
2022/09/16 10:44:03;;;;;;;8.83;4.73;;;;;;;16.28;66.66;98604.72;5153233;28;20186;-70
2022/09/16 10:47:00;;;;;;;9.35;4.97;;;;;;;16.56;66.28;98595.94;5154791;28;20077;-69
2022/09/16 10:49:56;;;;;;;11.13;4.80;;;;;;;16.59;65.85;98596.38;5158569;28;20046;-69
2022/09/16 10:52:47;;;;;;;11.43;5.22;;;;;;;16.43;66.21;98586.75;5151372;28;20112;-70
2022/09/16 10:55:37;;;;;;;10.07;4.80;;;;;;;16.37;66.89;98584.03;5156450;28;20065;-69
2022/09/16 10:58:28;;;;;;;8.07;5.00;;;;;;;16.76;66.29;98580.91;5159964;28;20092;-69
2022/09/16 11:01:36;;;;;;;9.15;4.90;;;;;;;16.44;66.27;98585.75;5145581;28;20571;-69
2022/09/16 11:05:05;;;;;;;12.10;5.07;;;;;;;16.12;68.24;98595.06;5159837;28;20057;-70
2022/09/16 11:08:20;;;;;;;10.70;4.97;;;;;;;16.67;66.71;98590.06;5149973;28;20152;-70
2022/09/16 11:11:27;;;;;;;9.00;5.75;;;;;;;16.62;67.05;98582.63;5142632;28;20137;-70
2022/09/16 11:14:44;;;;;;;18.45;10.43;;;;;;;16.39;67.14;98590.84;5156796;28;20089;-70
2022/09/16 11:17:40;;;;;;;10.82;6.15;;;;;;;16.86;66.75;98597.47;5156059;28;20148;-68
2022/09/16 11:20:52;;;;;;;13.23;4.85;;;;;;;16.03;66.61;98598.91;5147046;28;20057;-71
2022/09/16 11:24:07;;;;;;;6.78;4.22;;;;;;;16.60;65.63;98603.38;5149584;28;20597;-70
2022/09/16 11:27:33;;;;;;;9.05;4.07;;;;;;;16.59;64.26;98614.31;5137050;28;20073;-74
2022/09/16 11:30:23;;;;;;;7.03;3.60;;;;;;;16.18;64.12;98607.69;5142645;28;20590;-72
2022/09/16 11:33:27;;;;;;;8.80;3.92;;;;;;;16.10;64.53;98610.50;5149737;28;20057;-73
2022/09/16 11:36:28;;;;;;;11.15;3.58;;;;;;;16.21;64.73;98601.16;5163613;28;20057;-72
2022/09/16 11:39:49;;;;;;;8.07;3.85;;;;;;;16.51;64.76;98617.09;5150329;28;20053;-72
2022/09/16 11:43:04;;;;;;;11.50;3.47;;;;;;;16.02;65.58;98609.78;5147174;28;20090;-72
2022/09/16 11:46:09;;;;;;;6.53;3.40;;;;;;;16.74;64.36;98609.69;5151270;28;20058;-73
2022/09/16 11:49:13;;;;;;;6.03;2.80;;;;;;;16.64;63.39;98609.19;5148267;28;20062;-74
2022/09/16 11:52:21;;;;;;;7.20;2.70;;;;;;;17.19;63.41;98606.78;5151981;28;20042;-73
2022/09/16 11:55:46;;;;;;;3.53;1.92;;;;;;;17.21;59.12;98604.72;5146841;28;20054;-71
2022/09/16 11:58:45;;;;;;;8.70;2.47;;;;;;;17.22;59.75;98601.84;5145504;28;20123;-71
2022/09/16 12:01:45;;;;;;;8.73;2.08;;;;;;;16.70;58.87;98565.59;5141300;28;20301;-72
2022/09/16 12:04:45;;;;;;;8.10;2.17;;;;;;;17.56;57.12;98581.44;5160543;28;20068;-72
2022/09/16 12:07:47;;;;;;;6.45;2.20;;;;;;;16.96;58.17;98577.56;5147701;28;20500;-73
2022/09/16 12:11:16;;;;;;;5.03;1.98;;;;;;;17.35;57.46;98585.88;5140323;28;20521;-72
2022/09/16 12:14:24;;;;;;;4.85;1.75;;;;;;;16.79;57.50;98572.50;5158052;28;20120;-73
2022/09/16 12:17:21;;;;;;;7.55;1.90;;;;;;;17.28;56.99;98576.94;5145729;28;20168;-71
2022/09/16 12:20:19;;;;;;;4.63;1.50;;;;;;;17.56;55.79;98581.44;5149508;28;20042;-72
2022/09/16 12:23:23;;;;;;;3.35;1.40;;;;;;;16.78;56.29;98583.38;5156496;28;20046;-70
2022/09/16 12:26:20;;;;;;;2.63;1.58;;;;;;;16.75;57.23;98563.19;5163679;28;20050;-71
2022/09/16 12:29:16;;;;;;;4.28;1.50;;;;;;;17.54;54.99;98562.84;5172399;28;20515;-71
2022/09/16 12:32:16;;;;;;;4.05;1.70;;;;;;;17.81;55.28;98565.69;5150474;28;20058;-71
2022/09/16 12:35:14;;;;;;;3.60;1.75;;;;;;;18.20;56.12;98572.19;5147331;28;20179;-71
2022/09/16 12:38:15;;;;;;;4.40;1.80;;;;;;;18.37;54.84;98557.34;5145156;28;20065;-72
2022/09/16 12:41:05;;;;;;;5.13;1.90;;;;;;;18.54;55.17;98568.53;5144465;28;20062;-74
2022/09/16 12:44:20;;;;;;;4.72;1.98;;;;;;;18.75;55.24;98565.69;5142135;28;20086;-74
2022/09/16 12:47:52;;;;;;;6.75;1.92;;;;;;;18.92;52.04;98560.72;5150394;28;20062;-72
2022/09/16 12:50:59;;;;;;;6.22;2.20;;;;;;;18.47;52.58;98551.59;5137209;28;20054;-73
2022/09/16 12:54:10;;;;;;;5.93;1.80;;;;;;;18.53;53.17;98548.91;5139904;28;20505;-71
2022/09/16 12:57:20;;;;;;;6.05;2.08;;;;;;;19.15;51.98;98544.16;5143951;28;20069;-73
2022/09/16 13:00:15;;;;;;;8.30;2.13;;;;;;;17.98;53.13;98534.81;5144239;28;20155;-71
2022/09/16 13:03:14;;;;;;;6.40;2.33;;;;;;;18.19;52.83;98546.41;5144311;28;20412;-71
2022/09/16 13:06:18;;;;;;;5.32;1.77;;;;;;;17.96;53.96;98536.03;5138619;28;20061;-71
2022/09/16 13:09:13;;;;;;;7.15;2.08;;;;;;;18.42;52.58;98540.66;5141379;28;20120;-72
2022/09/16 13:12:15;;;;;;;4.28;1.42;;;;;;;18.93;51.31;98540.88;5144070;28;21889;-73
2022/09/16 13:15:31;;;;;;;3.40;1.60;;;;;;;19.15;49.80;98528.03;5143860;28;22211;-73
2022/09/16 13:18:36;;;;;;;3.83;1.83;;;;;;;19.44;52.61;98526.72;5136243;28;20058;-70
2022/09/16 13:21:43;;;;;;;4.93;2.05;;;;;;;18.43;51.85;98521.66;5146199;28;20046;-71
2022/09/16 13:24:41;;;;;;;5.78;1.92;;;;;;;17.22;52.71;98520.63;5151571;28;20152;-71
2022/09/16 13:27:35;;;;;;;3.15;1.85;;;;;;;17.94;51.96;98517.44;5145899;28;20084;-69
2022/09/16 13:30:36;;;;;;;4.53;1.60;;;;;;;18.50;51.40;98519.78;5145965;28;20069;-72
2022/09/16 13:33:28;;;;;;;4.40;1.90;;;;;;;18.76;50.01;98521.69;5143745;28;20097;-71
2022/09/16 13:36:18;;;;;;;3.80;1.58;;;;;;;18.18;51.54;98513.38;5146952;28;20069;-71
2022/09/16 13:39:28;;;;;;;9.63;1.65;;;;;;;18.14;52.97;98506.75;5155051;28;20417;-69
2022/09/16 13:42:20;;;;;;;3.92;1.77;;;;;;;18.61;50.48;98504.94;5150947;28;20659;-71
2022/09/16 13:45:35;;;;;;;4.63;1.63;;;;;;;18.78;51.87;98519.63;5150457;28;20088;-70
2022/09/16 13:48:26;;;;;;;8.07;2.97;;;;;;;18.24;52.23;98515.22;5151781;28;20515;-72
2022/09/16 13:51:20;;;;;;;5.45;2.13;;;;;;;17.94;51.37;98511.25;5153434;28;20057;-69
2022/09/16 13:54:47;;;;;;;3.72;1.38;;;;;;;17.95;51.51;98518.28;5152079;28;20046;-71
2022/09/16 13:58:04;;;;;;;9.73;3.78;;;;;;;18.50;51.12;98508.22;5150523;28;20064;-70